sensor_id;sensor_type;location;lat;lon;timestamp;pressure;altitude;pressure_sealevel;temperature;humidity
27980;BME280;15315;50.836;4.430;2023-02-21T00:07:06;101672.75;;;11.46;100.00
27980;BME280;15315;50.836;4.430;2023-02-21T00:17:25;101691.00;;;12.02;100.00
27980;BME280;15315;50.836;4.430;2023-02-21T00:27:44;101673.28;;;11.52;100.00
27980;BME280;15315;50.836;4.430;2023-02-21T00:38:03;101666.25;;;11.94;100.00
27980;BME280;15315;50.836;4.430;2023-02-21T00:48:23;101675.09;;;11.82;100.00
27980;BME280;15315;50.836;4.430;2023-02-21T00:58:42;101679.44;;;12.14;100.00
27980;BME280;15315;50.836;4.430;2023-02-21T01:09:01;101671.78;;;12.20;100.00
27980;BME280;15315;50.836;4.430;2023-02-21T01:19:20;101669.31;;;11.88;100.00
27980;BME280;15315;50.836;4.430;2023-02-21T01:29:39;101659.22;;;11.91;100.00
27980;BME280;15315;50.836;4.430;2023-02-21T01:39:58;101656.97;;;11.84;100.00
27980;BME280;15315;50.836;4.430;2023-02-21T01:50:18;101644.13;;;11.87;100.00
27980;BME280;15315;50.836;4.430;2023-02-21T02:00:39;101643.88;;;11.01;100.00
27980;BME280;15315;50.836;4.430;2023-02-21T02:11:59;101645.53;;;11.94;100.00
27980;BME280;15315;50.836;4.430;2023-02-21T02:42:25;101626.59;;;12.08;100.00
27980;BME280;15315;50.836;4.430;2023-02-21T02:52:28;101616.69;;;12.09;100.00
27980;BME280;15315;50.836;4.430;2023-02-21T03:22:49;101602.50;;;12.19;100.00
27980;BME280;15315;50.836;4.430;2023-02-21T03:32:52;101599.31;;;11.55;100.00
27980;BME280;15315;50.836;4.430;2023-02-21T03:42:54;101594.25;;;11.79;100.00
27980;BME280;15315;50.836;4.430;2023-02-21T03:52:55;101585.22;;;11.34;100.00
27980;BME280;15315;50.836;4.430;2023-02-21T04:02:55;101580.00;;;11.47;100.00
27980;BME280;15315;50.836;4.430;2023-02-21T04:12:56;101576.22;;;11.20;100.00
27980;BME280;15315;50.836;4.430;2023-02-21T04:22:56;101570.84;;;11.34;100.00
27980;BME280;15315;50.836;4.430;2023-02-21T04:32:57;101566.22;;;11.06;100.00
27980;BME280;15315;50.836;4.430;2023-02-21T04:42:57;101574.31;;;11.36;100.00
27980;BME280;15315;50.836;4.430;2023-02-21T04:52:57;101573.72;;;11.31;100.00
27980;BME280;15315;50.836;4.430;2023-02-21T05:02:58;101565.00;;;11.11;100.00
27980;BME280;15315;50.836;4.430;2023-02-21T05:12:58;101568.00;;;10.76;100.00
27980;BME280;15315;50.836;4.430;2023-02-21T05:22:59;101567.06;;;11.22;100.00
27980;BME280;15315;50.836;4.430;2023-02-21T05:33:00;101549.94;;;11.07;100.00
27980;BME280;15315;50.836;4.430;2023-02-21T05:43:00;101553.59;;;10.77;100.00
27980;BME280;15315;50.836;4.430;2023-02-21T05:53:00;101550.78;;;11.24;100.00
27980;BME280;15315;50.836;4.430;2023-02-21T06:03:01;101549.09;;;11.07;100.00
27980;BME280;15315;50.836;4.430;2023-02-21T06:13:01;101549.31;;;10.73;100.00
27980;BME280;15315;50.836;4.430;2023-02-21T06:23:02;101537.84;;;11.15;100.00
27980;BME280;15315;50.836;4.430;2023-02-21T06:33:03;101540.75;;;11.26;100.00
27980;BME280;15315;50.836;4.430;2023-02-21T06:43:04;101541.81;;;11.23;100.00
27980;BME280;15315;50.836;4.430;2023-02-21T06:53:04;101531.56;;;11.14;100.00
27980;BME280;15315;50.836;4.430;2023-02-21T07:03:04;101547.19;;;11.23;100.00
27980;BME280;15315;50.836;4.430;2023-02-21T07:13:05;101542.13;;;11.33;100.00
27980;BME280;15315;50.836;4.430;2023-02-21T07:23:05;101536.63;;;11.34;100.00
27980;BME280;15315;50.836;4.430;2023-02-21T07:33:06;101534.97;;;11.61;100.00
27980;BME280;15315;50.836;4.430;2023-02-21T07:43:06;101540.50;;;11.88;100.00
27980;BME280;15315;50.836;4.430;2023-02-21T07:53:07;101541.16;;;11.34;100.00
27980;BME280;15315;50.836;4.430;2023-02-21T08:03:11;101552.00;;;12.06;100.00
27980;BME280;15315;50.836;4.430;2023-02-21T08:13:11;101540.00;;;12.24;100.00
27980;BME280;15315;50.836;4.430;2023-02-21T08:23:12;101545.88;;;11.74;100.00
27980;BME280;15315;50.836;4.430;2023-02-21T08:33:13;101531.22;;;11.64;100.00
27980;BME280;15315;50.836;4.430;2023-02-21T08:43:14;101539.84;;;11.99;100.00
27980;BME280;15315;50.836;4.430;2023-02-21T08:53:14;101542.06;;;11.78;100.00
27980;BME280;15315;50.836;4.430;2023-02-21T09:03:15;101534.84;;;12.62;100.00
27980;BME280;15315;50.836;4.430;2023-02-21T09:13:15;101534.53;;;12.66;100.00
27980;BME280;15315;50.836;4.430;2023-02-21T09:23:16;101521.13;;;12.65;100.00
27980;BME280;15315;50.836;4.430;2023-02-21T09:33:19;101513.72;;;12.54;100.00
27980;BME280;15315;50.836;4.430;2023-02-21T09:43:30;101513.22;;;12.48;100.00
27980;BME280;15315;50.836;4.430;2023-02-21T09:53:35;101507.53;;;12.79;100.00
27980;BME280;15315;50.836;4.430;2023-02-21T10:03:44;101505.56;;;12.68;100.00
27980;BME280;15315;50.836;4.430;2023-02-21T10:24:24;101504.63;;;12.41;100.00
27980;BME280;15315;50.836;4.430;2023-02-21T10:34:26;101504.66;;;12.94;100.00
27980;BME280;15315;50.836;4.430;2023-02-21T10:44:29;101503.97;;;12.78;100.00
27980;BME280;15315;50.836;4.430;2023-02-21T10:54:31;101502.75;;;12.96;100.00
27980;BME280;15315;50.836;4.430;2023-02-21T11:04:33;101495.41;;;13.11;100.00
27980;BME280;15315;50.836;4.430;2023-02-21T11:14:34;101487.03;;;12.62;100.00
27980;BME280;15315;50.836;4.430;2023-02-21T11:24:50;101464.75;;;13.11;100.00
27980;BME280;15315;50.836;4.430;2023-02-21T11:35:00;101458.19;;;13.40;100.00
27980;BME280;15315;50.836;4.430;2023-02-21T11:55:23;101441.59;;;13.32;100.00
27980;BME280;15315;50.836;4.430;2023-02-21T12:05:33;101436.97;;;13.59;99.85
27980;BME280;15315;50.836;4.430;2023-02-21T12:26:18;101413.31;;;13.36;96.73
27980;BME280;15315;50.836;4.430;2023-02-21T12:56:53;101388.97;;;13.97;92.10
27980;BME280;15315;50.836;4.430;2023-02-21T13:07:01;101362.22;;;14.64;91.59
27980;BME280;15315;50.836;4.430;2023-02-21T13:17:03;101356.63;;;14.31;90.40
27980;BME280;15315;50.836;4.430;2023-02-21T13:37:17;101343.38;;;13.79;91.54
27980;BME280;15315;50.836;4.430;2023-02-21T13:47:20;101332.41;;;13.93;91.58
27980;BME280;15315;50.836;4.430;2023-02-21T13:57:31;101316.31;;;14.50;89.57
27980;BME280;15315;50.836;4.430;2023-02-21T14:07:45;101308.31;;;14.12;87.46
27980;BME280;15315;50.836;4.430;2023-02-21T14:17:47;101306.97;;;14.41;88.80
27980;BME280;15315;50.836;4.430;2023-02-21T14:27:51;101291.19;;;13.51;93.79
27980;BME280;15315;50.836;4.430;2023-02-21T14:38:05;101292.56;;;14.17;90.93
27980;BME280;15315;50.836;4.430;2023-02-21T14:58:47;101272.91;;;14.37;89.73
27980;BME280;15315;50.836;4.430;2023-02-21T15:08:54;101270.31;;;14.59;88.89
27980;BME280;15315;50.836;4.430;2023-02-21T15:19:00;101262.53;;;14.66;87.54
27980;BME280;15315;50.836;4.430;2023-02-21T15:29:05;101261.97;;;14.39;88.78
27980;BME280;15315;50.836;4.430;2023-02-21T15:39:14;101260.03;;;14.17;89.67
27980;BME280;15315;50.836;4.430;2023-02-21T15:49:23;101247.13;;;13.97;89.06
27980;BME280;15315;50.836;4.430;2023-02-21T15:59:26;101248.66;;;13.77;90.12
27980;BME280;15315;50.836;4.430;2023-02-21T16:09:32;101240.31;;;12.95;93.66
27980;BME280;15315;50.836;4.430;2023-02-21T16:19:35;101247.31;;;14.06;88.94
27980;BME280;15315;50.836;4.430;2023-02-21T16:29:36;101226.19;;;13.51;92.12
27980;BME280;15315;50.836;4.430;2023-02-21T16:39:36;101232.53;;;12.90;96.48
27980;BME280;15315;50.836;4.430;2023-02-21T16:49:37;101227.31;;;13.36;92.19
27980;BME280;15315;50.836;4.430;2023-02-21T16:59:37;101212.03;;;13.12;92.39
27980;BME280;15315;50.836;4.430;2023-02-21T17:09:38;101212.50;;;12.93;93.37
27980;BME280;15315;50.836;4.430;2023-02-21T17:19:38;101204.59;;;12.40;97.34
27980;BME280;15315;50.836;4.430;2023-02-21T17:29:39;101211.50;;;12.31;97.82
27980;BME280;15315;50.836;4.430;2023-02-21T17:39:39;101204.47;;;12.28;97.62
27980;BME280;15315;50.836;4.430;2023-02-21T17:49:39;101201.00;;;12.14;97.88
27980;BME280;15315;50.836;4.430;2023-02-21T17:59:40;101199.38;;;12.36;95.39
27980;BME280;15315;50.836;4.430;2023-02-21T18:09:40;101198.47;;;11.98;97.59
27980;BME280;15315;50.836;4.430;2023-02-21T18:19:41;101185.47;;;11.78;98.44
27980;BME280;15315;50.836;4.430;2023-02-21T18:29:41;101180.03;;;11.65;97.40
27980;BME280;15315;50.836;4.430;2023-02-21T18:39:41;101171.13;;;11.51;98.13
27980;BME280;15315;50.836;4.430;2023-02-21T18:49:42;101180.50;;;11.45;97.62
27980;BME280;15315;50.836;4.430;2023-02-21T18:59:43;101171.50;;;11.45;96.34
27980;BME280;15315;50.836;4.430;2023-02-21T19:09:45;101158.41;;;11.39;95.44
27980;BME280;15315;50.836;4.430;2023-02-21T19:19:46;101158.78;;;11.20;95.55
27980;BME280;15315;50.836;4.430;2023-02-21T19:29:46;101139.78;;;11.22;94.84
27980;BME280;15315;50.836;4.430;2023-02-21T19:39:47;101132.88;;;11.03;94.65
27980;BME280;15315;50.836;4.430;2023-02-21T19:49:47;101132.03;;;10.48;98.11
27980;BME280;15315;50.836;4.430;2023-02-21T19:59:47;101125.41;;;10.80;94.50
27980;BME280;15315;50.836;4.430;2023-02-21T20:09:48;101118.69;;;10.73;93.79
27980;BME280;15315;50.836;4.430;2023-02-21T20:19:48;101109.41;;;10.51;94.52
27980;BME280;15315;50.836;4.430;2023-02-21T20:29:49;101094.19;;;10.35;94.66
27980;BME280;15315;50.836;4.430;2023-02-21T20:39:49;101089.06;;;10.17;95.27
27980;BME280;15315;50.836;4.430;2023-02-21T20:49:50;101076.16;;;9.79;96.07
27980;BME280;15315;50.836;4.430;2023-02-21T20:59:50;101064.44;;;10.09;92.89
27980;BME280;15315;50.836;4.430;2023-02-21T21:09:53;101064.69;;;9.76;94.58
27980;BME280;15315;50.836;4.430;2023-02-21T21:19:54;101049.22;;;9.94;93.45
27980;BME280;15315;50.836;4.430;2023-02-21T21:29:54;101034.78;;;9.80;93.63
27980;BME280;15315;50.836;4.430;2023-02-21T21:39:55;101029.50;;;9.93;94.66
27980;BME280;15315;50.836;4.430;2023-02-21T21:50:05;101016.69;;;9.82;98.10
27980;BME280;15315;50.836;4.430;2023-02-21T22:00:05;100999.72;;;9.82;100.00
27980;BME280;15315;50.836;4.430;2023-02-21T22:10:12;101003.25;;;9.82;100.00
27980;BME280;15315;50.836;4.430;2023-02-21T22:20:17;101006.34;;;9.76;100.00
27980;BME280;15315;50.836;4.430;2023-02-21T22:30:20;101006.72;;;9.99;100.00
27980;BME280;15315;50.836;4.430;2023-02-21T22:40:23;100997.00;;;9.96;100.00
27980;BME280;15315;50.836;4.430;2023-02-21T22:50:25;100994.31;;;9.96;100.00
27980;BME280;15315;50.836;4.430;2023-02-21T23:00:30;100980.28;;;10.05;100.00
27980;BME280;15315;50.836;4.430;2023-02-21T23:10:33;100982.34;;;10.00;100.00
27980;BME280;15315;50.836;4.430;2023-02-21T23:20:39;100983.88;;;10.18;100.00
27980;BME280;15315;50.836;4.430;2023-02-21T23:30:43;100974.00;;;10.05;100.00
27980;BME280;15315;50.836;4.430;2023-02-21T23:40:53;100975.75;;;9.92;100.00
27980;BME280;15315;50.836;4.430;2023-02-21T23:50:55;100981.50;;;9.85;100.00
